createdAt,value
2018-08-25T00:00:29.161Z,1005.08
2018-08-25T00:01:29.153Z,1005.09
2018-08-25T00:02:29.112Z,1005.10
2018-08-25T00:03:29.131Z,1005.08
2018-08-25T00:04:29.141Z,1005.07
2018-08-25T00:05:29.113Z,1005.02
2018-08-25T00:06:29.064Z,1005.06
2018-08-25T00:07:29.089Z,1005.01
2018-08-25T00:08:29.074Z,1005.02
2018-08-25T00:09:29.090Z,1005.00
2018-08-25T00:10:29.018Z,1005.00
2018-08-25T00:11:29.044Z,1004.96
2018-08-25T00:12:29.036Z,1004.97
2018-08-25T00:13:29.041Z,1004.94
2018-08-25T00:14:29.010Z,1004.93
2018-08-25T00:15:29.031Z,1004.91
2018-08-25T00:16:28.958Z,1004.87
2018-08-25T00:17:28.932Z,1004.84
2018-08-25T00:18:28.966Z,1004.82
2018-08-25T00:19:28.962Z,1004.81
2018-08-25T00:20:29.070Z,1004.82
2018-08-25T00:21:28.938Z,1004.79
2018-08-25T00:22:28.934Z,1004.75
2018-08-25T00:23:28.915Z,1004.74
2018-08-25T00:24:28.925Z,1004.73
2018-08-25T00:25:28.933Z,1004.71
2018-08-25T00:26:28.885Z,1004.72
2018-08-25T00:27:28.875Z,1004.68
2018-08-25T00:28:28.814Z,1004.67
2018-08-25T00:29:28.845Z,1004.66
2018-08-25T00:30:28.869Z,1004.61
2018-08-25T00:31:28.836Z,1004.63
2018-08-25T00:32:28.842Z,1004.60
2018-08-25T00:33:28.821Z,1004.58
2018-08-25T00:34:28.816Z,1004.60
2018-08-25T00:35:28.786Z,1004.54
2018-08-25T00:36:28.772Z,1004.56
2018-08-25T00:37:28.778Z,1004.58
2018-08-25T00:38:28.757Z,1004.51
2018-08-25T00:39:28.726Z,1004.54
2018-08-25T00:40:28.727Z,1004.46
2018-08-25T00:41:28.747Z,1004.46
2018-08-25T00:42:28.713Z,1004.47
2018-08-25T00:43:28.708Z,1004.46
2018-08-25T00:44:28.671Z,1004.40
2018-08-25T00:45:28.743Z,1004.49
2018-08-25T00:46:28.643Z,1004.52
2018-08-25T00:47:28.655Z,1004.49
2018-08-25T00:48:28.655Z,1004.49
2018-08-25T00:49:28.659Z,1004.45
2018-08-25T00:50:28.622Z,1004.50
2018-08-25T00:51:28.608Z,1004.46
2018-08-25T00:52:28.602Z,1004.47
2018-08-25T00:53:28.591Z,1004.44
2018-08-25T00:54:28.553Z,1004.47
2018-08-25T00:55:28.561Z,1004.43
2018-08-25T00:56:28.555Z,1004.46
2018-08-25T00:57:28.538Z,1004.40
2018-08-25T00:58:28.530Z,1004.39
2018-08-25T00:59:28.583Z,1004.41
2018-08-25T01:00:28.518Z,1004.43
2018-08-25T01:01:28.504Z,1004.37
2018-08-25T01:02:28.488Z,1004.41
2018-08-25T01:03:28.479Z,1004.36
2018-08-25T01:04:28.500Z,1004.41
2018-08-25T01:05:28.462Z,1004.37
2018-08-25T01:06:28.456Z,1004.34
2018-08-25T01:07:28.435Z,1004.38
2018-08-25T01:08:28.425Z,1004.36
2018-08-25T01:09:28.436Z,1004.37
2018-08-25T01:10:28.410Z,1004.30
2018-08-25T01:11:28.343Z,1004.33
2018-08-25T01:12:28.381Z,1004.29
2018-08-25T01:13:28.464Z,1004.29
2018-08-25T01:14:28.334Z,1004.29
2018-08-25T01:15:28.399Z,1004.25
2018-08-25T01:16:28.335Z,1004.26
2018-08-25T01:17:28.325Z,1004.30
2018-08-25T01:18:28.315Z,1004.27
2018-08-25T01:19:28.403Z,1004.26
2018-08-25T01:20:28.295Z,1004.26
2018-08-25T01:21:28.289Z,1004.24
2018-08-25T01:22:28.266Z,1004.22
2018-08-25T01:23:28.218Z,1004.21
2018-08-25T01:24:28.272Z,1004.21
2018-08-25T01:25:28.193Z,1004.24
2018-08-25T01:26:28.228Z,1004.21
2018-08-25T01:27:28.223Z,1004.22
2018-08-25T01:28:28.208Z,1004.21
2018-08-25T01:29:28.223Z,1004.20
2018-08-25T01:30:28.180Z,1004.20
2018-08-25T01:31:28.170Z,1004.17
2018-08-25T01:32:28.161Z,1004.15
2018-08-25T01:33:28.108Z,1004.12
2018-08-25T01:34:28.120Z,1004.11
2018-08-25T01:35:28.126Z,1004.11
2018-08-25T01:36:28.118Z,1004.12
2018-08-25T01:37:28.109Z,1004.09
2018-08-25T01:38:28.095Z,1004.09
2018-08-25T01:39:28.091Z,1004.12
2018-08-25T01:40:28.144Z,1004.15
2018-08-25T01:41:28.099Z,1004.10
2018-08-25T01:42:28.058Z,1004.01
2018-08-25T01:43:28.080Z,1004.00
2018-08-25T01:44:27.987Z,1003.93
2018-08-25T01:45:28.041Z,1003.96
2018-08-25T01:46:28.003Z,1003.86
2018-08-25T01:47:27.998Z,1003.92
2018-08-25T01:48:28.003Z,1003.82
2018-08-25T01:49:27.972Z,1003.83
2018-08-25T01:50:28.285Z,1003.82
2018-08-25T01:51:27.980Z,1003.81
2018-08-25T01:52:27.943Z,1003.84
2018-08-25T01:53:27.886Z,1003.80
2018-08-25T01:54:27.919Z,1003.75
2018-08-25T01:55:27.926Z,1003.76
2018-08-25T01:56:27.899Z,1003.73
2018-08-25T01:57:27.892Z,1003.76
2018-08-25T01:58:27.873Z,1003.75
2018-08-25T01:59:27.857Z,1003.76
2018-08-25T02:00:27.874Z,1003.76
2018-08-25T02:01:27.837Z,1003.79
2018-08-25T02:02:27.832Z,1003.76
2018-08-25T02:03:27.813Z,1003.73
2018-08-25T02:04:27.764Z,1003.72
2018-08-25T02:05:27.773Z,1003.66
2018-08-25T02:06:27.786Z,1003.73
2018-08-25T02:07:27.732Z,1003.67
2018-08-25T02:08:27.725Z,1003.65
2018-08-25T02:09:27.750Z,1003.64
2018-08-25T02:10:27.774Z,1003.65
2018-08-25T02:11:27.731Z,1003.59
2018-08-25T02:12:27.800Z,1003.59
2018-08-25T02:13:27.673Z,1003.60
2018-08-25T02:14:27.696Z,1003.59
2018-08-25T02:15:27.712Z,1003.59
2018-08-25T02:16:27.689Z,1003.58
2018-08-25T02:17:27.665Z,1003.59
2018-08-25T02:18:27.615Z,1003.60
2018-08-25T02:19:27.638Z,1003.61
2018-08-25T02:20:27.618Z,1003.60
2018-08-25T02:21:27.629Z,1003.59
2018-08-25T02:22:27.654Z,1003.57
2018-08-25T02:23:27.594Z,1003.58
2018-08-25T02:24:27.591Z,1003.56
2018-08-25T02:25:27.603Z,1003.53
2018-08-25T02:26:27.604Z,1003.54
2018-08-25T02:27:27.557Z,1003.51
2018-08-25T02:28:27.547Z,1003.55
2018-08-25T02:29:27.540Z,1003.45
2018-08-25T02:30:27.546Z,1003.48
2018-08-25T02:31:27.478Z,1003.47
2018-08-25T02:32:27.472Z,1003.47
2018-08-25T02:33:27.492Z,1003.52
2018-08-25T02:34:27.488Z,1003.48
2018-08-25T02:35:27.488Z,1003.50
2018-08-25T02:36:27.460Z,1003.47
2018-08-25T02:37:27.420Z,1003.42
2018-08-25T02:38:27.455Z,1003.44
2018-08-25T02:39:27.437Z,1003.37
2018-08-25T02:40:27.441Z,1003.39
2018-08-25T02:41:27.408Z,1003.40
2018-08-25T02:42:27.402Z,1003.34
2018-08-25T02:43:27.383Z,1003.35
2018-08-25T02:44:27.378Z,1003.28
2018-08-25T02:45:27.345Z,1003.30
2018-08-25T02:46:27.358Z,1003.27
2018-08-25T02:47:27.345Z,1003.26
2018-08-25T02:48:27.331Z,1003.31
2018-08-25T02:49:27.273Z,1003.32
2018-08-25T02:50:27.332Z,1003.31
2018-08-25T02:51:27.256Z,1003.29
2018-08-25T02:52:27.288Z,1003.34
2018-08-25T02:53:27.235Z,1003.36
2018-08-25T02:54:27.270Z,1003.34
2018-08-25T02:55:27.278Z,1003.36
2018-08-25T02:56:27.247Z,1003.32
2018-08-25T02:57:27.233Z,1003.31
2018-08-25T02:58:27.224Z,1003.29
2018-08-25T02:59:27.178Z,1003.29
2018-08-25T03:00:27.226Z,1003.29
2018-08-25T03:01:27.191Z,1003.28
2018-08-25T03:02:27.179Z,1003.33
2018-08-25T03:03:27.168Z,1003.33
2018-08-25T03:04:27.116Z,1003.37
2018-08-25T03:05:27.139Z,1003.38
2018-08-25T03:06:27.140Z,1003.40
2018-08-25T03:07:27.143Z,1003.37
2018-08-25T03:08:27.117Z,1003.37
2018-08-25T03:09:27.066Z,1003.34
2018-08-25T03:10:27.123Z,1003.34
2018-08-25T03:11:27.040Z,1003.37
2018-08-25T03:12:27.075Z,1003.38
2018-08-25T03:13:27.057Z,1003.37
2018-08-25T03:14:27.051Z,1003.31
2018-08-25T03:15:27.042Z,1003.36
2018-08-25T03:16:27.061Z,1003.40
2018-08-25T03:17:27.014Z,1003.32
2018-08-25T03:18:27.008Z,1003.28
2018-08-25T03:19:26.994Z,1003.28
2018-08-25T03:20:26.987Z,1003.31
2018-08-25T03:21:27.070Z,1003.31
2018-08-25T03:22:26.961Z,1003.33
2018-08-25T03:23:26.945Z,1003.28
2018-08-25T03:24:26.936Z,1003.26
2018-08-25T03:25:26.987Z,1003.29
2018-08-25T03:26:26.940Z,1003.34
2018-08-25T03:27:26.906Z,1003.31
2018-08-25T03:28:26.902Z,1003.32
2018-08-25T03:29:26.885Z,1003.32
2018-08-25T03:30:26.870Z,1003.28
2018-08-25T03:31:26.919Z,1003.24
2018-08-25T03:32:26.805Z,1003.23
2018-08-25T03:33:26.837Z,1003.22
2018-08-25T03:34:26.840Z,1003.19
2018-08-25T03:35:26.815Z,1003.19
2018-08-25T03:36:26.836Z,1003.18
2018-08-25T03:37:26.797Z,1003.22
2018-08-25T03:38:26.794Z,1003.19
2018-08-25T03:39:26.776Z,1003.18
2018-08-25T03:40:26.761Z,1003.17
2018-08-25T03:41:26.779Z,1003.17
2018-08-25T03:42:26.695Z,1003.18
2018-08-25T03:43:26.734Z,1003.17
2018-08-25T03:44:26.721Z,1003.16
2018-08-25T03:45:26.713Z,1003.15
2018-08-25T03:46:26.728Z,1003.12
2018-08-25T03:47:26.685Z,1003.20
2018-08-25T03:48:26.679Z,1003.13
2018-08-25T03:49:26.664Z,1003.11
2018-08-25T03:50:26.615Z,1003.12
2018-08-25T03:51:26.670Z,1003.06
2018-08-25T03:52:26.644Z,1003.09
2018-08-25T03:53:26.621Z,1003.09
2018-08-25T03:54:26.562Z,1003.06
2018-08-25T03:55:26.658Z,1003.10
2018-08-25T03:56:26.608Z,1003.09
2018-08-25T03:57:26.578Z,1003.03
2018-08-25T03:58:26.567Z,1002.97
2018-08-25T03:59:26.559Z,1002.98
2018-08-25T04:00:26.544Z,1002.97
2018-08-25T04:01:26.608Z,1002.96
2018-08-25T04:02:26.529Z,1002.97
2018-08-25T04:03:26.514Z,1002.99
2018-08-25T04:04:26.506Z,1002.93
2018-08-25T04:05:26.488Z,1002.96
2018-08-25T04:06:26.516Z,1002.94
2018-08-25T04:07:26.460Z,1002.96
2018-08-25T04:08:26.560Z,1002.95
2018-08-25T04:09:26.447Z,1002.95
2018-08-25T04:10:26.432Z,1002.91
2018-08-25T04:11:26.455Z,1002.90
2018-08-25T04:12:26.412Z,1002.93
2018-08-25T04:13:26.403Z,1002.90
2018-08-25T04:14:26.355Z,1002.87
2018-08-25T04:15:26.384Z,1002.84
2018-08-25T04:16:26.387Z,1002.77
2018-08-25T04:17:26.378Z,1002.79
2018-08-25T04:18:26.477Z,1002.75
2018-08-25T04:19:26.336Z,1002.81
2018-08-25T04:20:26.335Z,1002.74
2018-08-25T04:21:26.363Z,1002.76
2018-08-25T04:22:26.359Z,1002.78
2018-08-25T04:23:26.293Z,1002.77
2018-08-25T04:24:26.317Z,1002.74
2018-08-25T04:25:26.286Z,1002.75
2018-08-25T04:26:26.291Z,1002.77
2018-08-25T04:27:26.251Z,1002.81
2018-08-25T04:28:26.255Z,1002.84
2018-08-25T04:29:26.247Z,1002.89
2018-08-25T04:30:26.217Z,1002.82
2018-08-25T04:31:26.210Z,1002.82
2018-08-25T04:32:26.247Z,1002.82
2018-08-25T04:33:26.249Z,1002.79
2018-08-25T04:34:26.195Z,1002.81
2018-08-25T04:35:26.182Z,1002.79
2018-08-25T04:36:26.156Z,1002.80
2018-08-25T04:37:26.123Z,1002.81
2018-08-25T04:38:26.140Z,1002.80
2018-08-25T04:39:26.120Z,1002.77
2018-08-25T04:40:26.112Z,1002.76
2018-08-25T04:41:26.159Z,1002.76
2018-08-25T04:42:26.117Z,1002.79
2018-08-25T04:43:26.079Z,1002.86
2018-08-25T04:44:26.063Z,1002.83
2018-08-25T04:45:26.061Z,1002.84
2018-08-25T04:46:26.050Z,1002.87
2018-08-25T04:47:26.059Z,1002.92
2018-08-25T04:48:26.023Z,1002.86
2018-08-25T04:49:26.033Z,1002.78
2018-08-25T04:50:26.008Z,1002.84
2018-08-25T04:51:26.019Z,1002.87
2018-08-25T04:52:26.002Z,1002.86
2018-08-25T04:53:25.964Z,1002.86
2018-08-25T04:54:25.983Z,1002.85
2018-08-25T04:55:25.950Z,1002.90
2018-08-25T04:56:25.934Z,1002.89
2018-08-25T04:57:25.949Z,1002.91
2018-08-25T04:58:25.916Z,1002.91
2018-08-25T04:59:25.904Z,1002.88
2018-08-25T05:00:25.894Z,1002.93
2018-08-25T05:01:25.929Z,1002.94
2018-08-25T05:02:25.895Z,1002.96
2018-08-25T05:03:25.860Z,1002.90
2018-08-25T05:04:25.849Z,1003.01
2018-08-25T05:05:25.838Z,1002.96
2018-08-25T05:06:25.823Z,1002.91
2018-08-25T05:07:25.854Z,1002.92
2018-08-25T05:08:25.826Z,1002.92
2018-08-25T05:09:25.801Z,1002.95
2018-08-25T05:10:25.799Z,1002.91
2018-08-25T05:11:25.734Z,1002.88
2018-08-25T05:12:25.785Z,1002.88
2018-08-25T05:13:25.751Z,1002.93
2018-08-25T05:14:25.740Z,1002.92
2018-08-25T05:15:25.726Z,1002.89
2018-08-25T05:16:25.719Z,1002.84
2018-08-25T05:17:25.831Z,1002.85
2018-08-25T05:18:25.697Z,1002.85
2018-08-25T05:19:25.698Z,1002.86
2018-08-25T05:20:25.673Z,1002.88
2018-08-25T05:21:25.626Z,1002.86
2018-08-25T05:22:25.676Z,1002.83
2018-08-25T05:23:25.667Z,1002.87
2018-08-25T05:24:25.634Z,1002.86
2018-08-25T05:25:25.629Z,1002.85
2018-08-25T05:26:25.629Z,1002.80
2018-08-25T05:27:25.660Z,1002.86
2018-08-25T05:28:25.596Z,1002.85
2018-08-25T05:29:25.579Z,1002.88
2018-08-25T05:30:25.568Z,1002.85
2018-08-25T05:31:25.556Z,1002.85
2018-08-25T05:32:25.565Z,1002.90
2018-08-25T05:33:25.539Z,1002.86
2018-08-25T05:34:25.522Z,1002.90
2018-08-25T05:35:25.515Z,1002.90
2018-08-25T05:36:25.506Z,1002.98
2018-08-25T05:37:25.535Z,1002.99
2018-08-25T05:38:25.482Z,1003.03
2018-08-25T05:39:25.475Z,1003.10
2018-08-25T05:40:25.464Z,1003.18
2018-08-25T05:41:25.448Z,1003.28
2018-08-25T05:42:25.471Z,1003.38
2018-08-25T05:43:25.427Z,1003.44
2018-08-25T05:44:25.431Z,1003.40
2018-08-25T05:45:25.405Z,1003.40
2018-08-25T05:46:25.392Z,1003.36
2018-08-25T05:47:25.418Z,1003.46
2018-08-25T05:48:25.381Z,1003.38
2018-08-25T05:49:25.374Z,1003.45
2018-08-25T05:50:25.349Z,1003.45
2018-08-25T05:51:25.345Z,1003.44
2018-08-25T05:52:25.361Z,1003.45
2018-08-25T05:53:25.328Z,1003.53
2018-08-25T05:54:25.339Z,1003.52
2018-08-25T05:55:25.316Z,1003.60
2018-08-25T05:56:25.289Z,1003.53
2018-08-25T05:57:25.302Z,1003.58
2018-08-25T05:58:25.281Z,1003.60
2018-08-25T05:59:25.260Z,1003.54
2018-08-25T06:00:25.247Z,1003.49
2018-08-25T06:01:25.249Z,1003.52
2018-08-25T06:02:25.266Z,1003.51
2018-08-25T06:03:25.228Z,1003.50
2018-08-25T06:04:25.202Z,1003.50
2018-08-25T06:05:25.196Z,1003.59
2018-08-25T06:06:25.263Z,1003.57
2018-08-25T06:07:25.167Z,1003.60
2018-08-25T06:08:25.185Z,1003.58
2018-08-25T06:09:25.152Z,1003.59
2018-08-25T06:10:25.152Z,1003.58
2018-08-25T06:11:25.125Z,1003.61
2018-08-25T06:12:25.134Z,1003.68
2018-08-25T06:13:25.153Z,1003.78
2018-08-25T06:14:25.186Z,1003.68
2018-08-25T06:15:25.090Z,1003.69
2018-08-25T06:16:25.041Z,1003.71
2018-08-25T06:17:25.066Z,1003.70
2018-08-25T06:18:25.076Z,1003.69
2018-08-25T06:19:25.048Z,1003.64
2018-08-25T06:20:25.064Z,1003.68
2018-08-25T06:21:25.022Z,1003.58
2018-08-25T06:22:24.974Z,1003.65
2018-08-25T06:23:25.013Z,1003.70
2018-08-25T06:24:25.020Z,1003.72
2018-08-25T06:25:24.935Z,1003.70
2018-08-25T06:26:24.969Z,1003.73
2018-08-25T06:27:24.945Z,1003.80
2018-08-25T06:28:24.965Z,1003.79
2018-08-25T06:29:24.935Z,1003.81
2018-08-25T06:30:24.958Z,1003.85
2018-08-25T06:31:24.961Z,1003.86
2018-08-25T06:32:24.855Z,1003.87
2018-08-25T06:33:25.001Z,1003.83
2018-08-25T06:34:24.872Z,1003.87
2018-08-25T06:35:24.857Z,1003.88
2018-08-25T06:36:24.833Z,1003.88
2018-08-25T06:37:24.795Z,1003.87
2018-08-25T06:38:24.874Z,1003.84
2018-08-25T06:39:24.820Z,1003.86
2018-08-25T06:40:24.810Z,1003.88
2018-08-25T06:41:24.778Z,1003.92
2018-08-25T06:42:24.786Z,1003.93
2018-08-25T06:43:24.827Z,1003.93
2018-08-25T06:44:24.767Z,1003.92
2018-08-25T06:45:24.712Z,1003.93
2018-08-25T06:46:24.696Z,1004.00
2018-08-25T06:47:24.757Z,1003.97
2018-08-25T06:48:24.820Z,1003.94
2018-08-25T06:49:24.717Z,1003.95
2018-08-25T06:50:24.720Z,1003.95
2018-08-25T06:51:24.705Z,1004.00
2018-08-25T06:52:24.711Z,1003.94
2018-08-25T06:53:24.808Z,1003.97
2018-08-25T06:54:24.664Z,1003.99
2018-08-25T06:55:24.643Z,1004.06
2018-08-25T06:56:24.638Z,1004.00
2018-08-25T06:57:24.624Z,1004.03
2018-08-25T06:58:24.637Z,1004.03
2018-08-25T06:59:24.628Z,1004.01
2018-08-25T07:00:24.600Z,1004.01
2018-08-25T07:01:24.581Z,1003.96
2018-08-25T07:02:24.569Z,1004.03
2018-08-25T07:03:24.585Z,1004.01
2018-08-25T07:04:24.550Z,1004.00
2018-08-25T07:05:24.562Z,1004.08
2018-08-25T07:06:24.485Z,1004.04
2018-08-25T07:07:24.476Z,1004.02
2018-08-25T07:08:24.541Z,1004.03
2018-08-25T07:09:24.457Z,1004.04
2018-08-25T07:10:24.488Z,1004.08
2018-08-25T07:11:24.428Z,1004.12
2018-08-25T07:12:24.461Z,1004.13
2018-08-25T07:13:24.637Z,1004.11
2018-08-25T07:14:24.444Z,1004.16
2018-08-25T07:15:24.432Z,1004.20
2018-08-25T07:16:24.415Z,1004.28
2018-08-25T07:17:24.425Z,1004.23
2018-08-25T07:18:24.418Z,1004.27
2018-08-25T07:19:24.413Z,1004.27
2018-08-25T07:20:24.373Z,1004.25
2018-08-25T07:21:24.365Z,1004.28
2018-08-25T07:22:24.416Z,1004.26
2018-08-25T07:23:24.423Z,1004.42
2018-08-25T07:24:24.331Z,1004.22
2018-08-25T07:25:24.327Z,1004.35
2018-08-25T07:26:24.311Z,1004.37
2018-08-25T07:27:24.310Z,1004.38
2018-08-25T07:28:24.334Z,1004.35
2018-08-25T07:29:24.277Z,1004.37
2018-08-25T07:30:24.265Z,1004.37
2018-08-25T07:31:24.259Z,1004.41
2018-08-25T07:32:24.247Z,1004.37
2018-08-25T07:33:24.259Z,1004.41
2018-08-25T07:34:24.231Z,1004.33
2018-08-25T07:35:24.216Z,1004.39
2018-08-25T07:36:24.201Z,1004.42
2018-08-25T07:37:24.206Z,1004.46
2018-08-25T07:38:24.295Z,1004.41
2018-08-25T07:39:24.175Z,1004.40
2018-08-25T07:40:24.165Z,1004.44
2018-08-25T07:41:24.106Z,1004.41
2018-08-25T07:42:24.140Z,1004.45
2018-08-25T07:43:24.127Z,1004.46
2018-08-25T07:44:24.148Z,1004.35
2018-08-25T07:45:24.170Z,1004.42
2018-08-25T07:46:24.101Z,1004.49
2018-08-25T07:47:24.088Z,1004.46
2018-08-25T07:48:24.077Z,1004.47
2018-08-25T07:49:24.158Z,1004.53
2018-08-25T07:50:24.051Z,1004.59
2018-08-25T07:51:24.810Z,1004.59
2018-08-25T07:52:24.033Z,1004.56
2018-08-25T07:53:24.020Z,1004.52
2018-08-25T07:54:24.093Z,1004.47
2018-08-25T07:55:24.007Z,1004.59
2018-08-25T07:56:23.968Z,1004.50
2018-08-25T07:57:23.994Z,1004.61
2018-08-25T07:58:23.938Z,1004.63
2018-08-25T07:59:23.974Z,1004.66
2018-08-25T08:00:23.967Z,1004.57
2018-08-25T08:01:23.940Z,1004.69
2018-08-25T08:02:23.929Z,1004.64
2018-08-25T08:03:23.927Z,1004.49
2018-08-25T08:04:23.891Z,1004.81
2018-08-25T08:05:23.921Z,1004.58
2018-08-25T08:06:23.844Z,1004.63
2018-08-25T08:07:23.889Z,1004.63
2018-08-25T08:08:23.817Z,1004.60
2018-08-25T08:09:23.844Z,1004.66
2018-08-25T08:10:23.808Z,1004.57
2018-08-25T08:11:23.832Z,1004.64
2018-08-25T08:12:23.910Z,1004.68
2018-08-25T08:13:23.827Z,1004.69
2018-08-25T08:14:23.805Z,1004.69
2018-08-25T08:15:23.795Z,1004.72
2018-08-25T08:16:23.792Z,1004.84
2018-08-25T08:17:23.779Z,1004.68
2018-08-25T08:18:23.768Z,1004.68
2018-08-25T08:19:24.461Z,1004.67
2018-08-25T08:20:23.746Z,1004.75
2018-08-25T08:21:23.722Z,1004.75
2018-08-25T08:22:23.700Z,1004.71
2018-08-25T08:23:23.711Z,1004.78
2018-08-25T08:24:23.744Z,1004.89
2018-08-25T08:25:23.681Z,1004.82
2018-08-25T08:26:23.674Z,1004.79
2018-08-25T08:27:23.695Z,1004.70
2018-08-25T08:28:23.651Z,1004.77
2018-08-25T08:29:23.703Z,1004.77
2018-08-25T08:30:23.629Z,1004.76
2018-08-25T08:31:23.651Z,1004.80
2018-08-25T08:32:23.623Z,1004.77
2018-08-25T08:33:23.593Z,1004.85
2018-08-25T08:34:23.605Z,1004.73
2018-08-25T08:35:23.580Z,1004.95
2018-08-25T08:36:23.519Z,1004.77
2018-08-25T08:37:23.551Z,1004.84
2018-08-25T08:38:23.556Z,1004.77
2018-08-25T08:39:23.661Z,1004.83
2018-08-25T08:40:23.527Z,1004.80
2018-08-25T08:41:23.522Z,1004.77
2018-08-25T08:42:23.563Z,1004.79
2018-08-25T08:43:23.488Z,1004.76
2018-08-25T08:44:23.466Z,1004.76
2018-08-25T08:45:23.495Z,1004.78
2018-08-25T08:46:23.469Z,1004.85
2018-08-25T08:47:23.480Z,1004.77
2018-08-25T08:48:23.475Z,1004.91
2018-08-25T08:49:23.447Z,1004.76
2018-08-25T08:50:23.435Z,1004.83
2018-08-25T08:51:23.415Z,1004.85
2018-08-25T08:52:23.351Z,1004.87
2018-08-25T08:53:23.387Z,1004.85
2018-08-25T08:54:23.404Z,1004.79
2018-08-25T08:55:23.395Z,1004.81
2018-08-25T08:56:23.352Z,1004.82
2018-08-25T08:57:23.360Z,1004.85
2018-08-25T08:58:23.354Z,1004.93
2018-08-25T08:59:23.339Z,1004.91
2018-08-25T09:00:23.327Z,1004.95
2018-08-25T09:01:23.306Z,1004.95
2018-08-25T09:02:23.318Z,1005.07
2018-08-25T09:03:23.306Z,1004.96
2018-08-25T09:04:23.335Z,1004.93
2018-08-25T09:05:23.330Z,1004.95
2018-08-25T09:06:23.247Z,1004.99
2018-08-25T09:07:23.186Z,1004.93
2018-08-25T09:08:23.219Z,1004.93
2018-08-25T09:09:23.333Z,1004.90
2018-08-25T09:10:23.215Z,1004.92
2018-08-25T09:11:23.263Z,1004.94
2018-08-25T09:12:23.186Z,1004.98
2018-08-25T09:13:23.197Z,1004.94
2018-08-25T09:14:23.157Z,1005.05
2018-08-25T09:15:23.262Z,1005.04
2018-08-25T09:16:23.152Z,1004.94
2018-08-25T09:17:23.125Z,1004.97
2018-08-25T09:18:23.114Z,1004.96
2018-08-25T09:19:23.089Z,1005.01
2018-08-25T09:20:23.108Z,1004.93
2018-08-25T09:21:23.087Z,1005.00
2018-08-25T09:22:23.029Z,1005.05
2018-08-25T09:23:23.061Z,1005.11
2018-08-25T09:24:23.004Z,1005.05
2018-08-25T09:25:23.396Z,1005.07
2018-08-25T09:26:23.046Z,1005.14
2018-08-25T09:27:23.054Z,1005.16
2018-08-25T09:28:22.997Z,1005.06
2018-08-25T09:29:23.044Z,1005.08
2018-08-25T09:30:22.959Z,1005.19
2018-08-25T09:31:22.967Z,1005.07
2018-08-25T09:32:22.964Z,1005.24
2018-08-25T09:33:22.964Z,1005.14
2018-08-25T09:34:22.962Z,1005.15
2018-08-25T09:35:22.913Z,1005.10
2018-08-25T09:36:23.016Z,1005.11
2018-08-25T09:37:22.923Z,1005.11
2018-08-25T09:38:22.894Z,1005.05
2018-08-25T09:39:22.895Z,1005.02
2018-08-25T09:40:22.895Z,1005.10
2018-08-25T09:41:22.867Z,1005.11
2018-08-25T09:42:22.855Z,1005.12
2018-08-25T09:43:22.861Z,1005.16
2018-08-25T09:44:22.794Z,1005.14
2018-08-25T09:45:22.845Z,1005.13
2018-08-25T09:46:22.821Z,1005.00
2018-08-25T09:47:22.791Z,1005.15
2018-08-25T09:48:22.784Z,1005.08
2018-08-25T09:49:22.775Z,1005.05
2018-08-25T09:50:22.794Z,1005.16
2018-08-25T09:51:22.761Z,1005.20
2018-08-25T09:52:22.754Z,1005.17
2018-08-25T09:53:22.819Z,1005.13
2018-08-25T09:54:22.721Z,1005.14
2018-08-25T09:55:22.739Z,1005.18
2018-08-25T09:56:22.716Z,1005.18
2018-08-25T09:57:22.695Z,1005.27
2018-08-25T09:58:22.761Z,1005.23
2018-08-25T09:59:22.666Z,1005.29
2018-08-25T10:00:22.682Z,1005.24
2018-08-25T10:01:22.653Z,1005.24
2018-08-25T10:02:22.662Z,1005.23
2018-08-25T10:03:22.620Z,1005.12
2018-08-25T10:04:22.618Z,1005.14
2018-08-25T10:05:22.721Z,1005.19
2018-08-25T10:06:22.590Z,1005.20
2018-08-25T10:07:22.582Z,1005.21
2018-08-25T10:08:22.580Z,1005.19
2018-08-25T10:09:22.557Z,1005.30
2018-08-25T10:10:22.599Z,1005.25
2018-08-25T10:11:22.536Z,1005.25
2018-08-25T10:12:22.525Z,1005.31
2018-08-25T10:13:22.534Z,1005.32
2018-08-25T10:14:22.508Z,1005.34
2018-08-25T10:15:22.522Z,1005.27
2018-08-25T10:16:22.503Z,1005.28
2018-08-25T10:17:22.469Z,1005.33
2018-08-25T10:18:22.477Z,1005.38
2018-08-25T10:19:22.448Z,1005.53
2018-08-25T10:20:22.459Z,1005.46
2018-08-25T10:21:22.427Z,1005.49
2018-08-25T10:22:22.379Z,1005.47
2018-08-25T10:23:22.410Z,1005.46
2018-08-25T10:24:22.415Z,1005.48
2018-08-25T10:25:22.418Z,1005.50
2018-08-25T10:26:22.380Z,1005.39
2018-08-25T10:27:22.364Z,1005.48
2018-08-25T10:28:22.353Z,1005.46
2018-08-25T10:29:22.361Z,1005.51
2018-08-25T10:30:22.380Z,1005.52
2018-08-25T10:31:22.319Z,1005.62
2018-08-25T10:32:22.312Z,1005.46
2018-08-25T10:33:22.297Z,1005.49
2018-08-25T10:34:22.293Z,1005.53
2018-08-25T10:35:22.300Z,1005.67
2018-08-25T10:36:22.275Z,1005.70
2018-08-25T10:37:22.264Z,1005.78
2018-08-25T10:38:22.248Z,1005.69
2018-08-25T10:39:22.234Z,1005.70
2018-08-25T10:40:22.224Z,1005.64
2018-08-25T10:41:22.241Z,1005.69
2018-08-25T10:42:22.207Z,1005.66
2018-08-25T10:43:22.198Z,1005.65
2018-08-25T10:44:22.201Z,1005.64
2018-08-25T10:45:22.173Z,1005.65
2018-08-25T10:46:22.184Z,1005.65
2018-08-25T10:47:22.129Z,1005.67
2018-08-25T10:48:22.147Z,1005.63
2018-08-25T10:49:22.127Z,1005.62
2018-08-25T10:50:22.128Z,1005.61
2018-08-25T10:51:22.127Z,1005.62
2018-08-25T10:52:22.098Z,1005.59
2018-08-25T10:53:22.058Z,1005.55
2018-08-25T10:54:22.093Z,1005.51
2018-08-25T10:55:22.060Z,1005.52
2018-08-25T10:56:22.081Z,1005.57
2018-08-25T10:57:22.042Z,1005.50
2018-08-25T10:58:21.990Z,1005.51
2018-08-25T10:59:22.042Z,1005.55
2018-08-25T11:00:22.061Z,1005.60
2018-08-25T11:01:21.999Z,1005.49
2018-08-25T11:02:21.998Z,1005.56
2018-08-25T11:03:21.977Z,1005.61
2018-08-25T11:04:21.983Z,1005.48
2018-08-25T11:05:21.915Z,1005.50
2018-08-25T11:06:21.935Z,1005.51
2018-08-25T11:07:21.930Z,1005.53
2018-08-25T11:08:21.920Z,1005.46
2018-08-25T11:09:21.864Z,1005.55
2018-08-25T11:10:21.907Z,1005.45
2018-08-25T11:11:22.019Z,1005.49
2018-08-25T11:12:21.876Z,1005.45
2018-08-25T11:13:21.873Z,1005.52
2018-08-25T11:14:21.850Z,1005.37
2018-08-25T11:15:21.847Z,1005.42
2018-08-25T11:16:21.837Z,1005.49
2018-08-25T11:17:21.826Z,1005.52
2018-08-25T11:18:21.804Z,1005.59
2018-08-25T11:19:21.798Z,1005.64
2018-08-25T11:20:21.791Z,1005.48
2018-08-25T11:21:21.801Z,1005.58
2018-08-25T11:22:21.775Z,1005.52
2018-08-25T11:23:21.753Z,1005.57
2018-08-25T11:24:21.743Z,1005.59
2018-08-25T11:25:21.730Z,1005.49
2018-08-25T11:26:21.743Z,1005.43
2018-08-25T11:27:21.706Z,1005.48
2018-08-25T11:28:21.702Z,1005.48
2018-08-25T11:29:21.751Z,1005.47
2018-08-25T11:30:21.679Z,1005.43
2018-08-25T11:31:21.686Z,1005.41
2018-08-25T11:32:21.665Z,1005.48
2018-08-25T11:33:21.659Z,1005.46
2018-08-25T11:34:21.641Z,1005.50
2018-08-25T11:35:21.634Z,1005.47
2018-08-25T11:36:21.717Z,1005.42
2018-08-25T11:37:21.701Z,1005.42
2018-08-25T11:38:21.609Z,1005.39
2018-08-25T11:39:21.587Z,1005.48
2018-08-25T11:40:21.579Z,1005.57
2018-08-25T11:41:21.601Z,1005.57
2018-08-25T11:42:21.551Z,1005.50
2018-08-25T11:43:21.502Z,1005.54
2018-08-25T11:44:21.530Z,1005.59
2018-08-25T11:45:21.520Z,1005.55
2018-08-25T11:46:21.486Z,1005.54
2018-08-25T11:47:21.498Z,1005.50
2018-08-25T11:48:21.492Z,1005.50
2018-08-25T11:49:21.500Z,1005.53
2018-08-25T11:50:21.476Z,1005.54
2018-08-25T11:51:21.492Z,1005.59
2018-08-25T11:52:21.453Z,1005.58
2018-08-25T11:53:21.431Z,1005.58
2018-08-25T11:54:21.428Z,1005.58
2018-08-25T11:55:21.383Z,1005.49
2018-08-25T11:56:21.431Z,1005.53
2018-08-25T11:57:21.401Z,1005.49
2018-08-25T11:58:21.383Z,1005.42
2018-08-25T11:59:21.369Z,1005.41
2018-08-25T12:00:21.362Z,1005.53
2018-08-25T12:01:21.370Z,1005.51
2018-08-25T12:02:21.410Z,1005.49
2018-08-25T12:03:21.353Z,1005.52
2018-08-25T12:04:21.288Z,1005.43
2018-08-25T12:05:21.313Z,1005.47